createdAt,value
2019-05-20T00:00:39.493Z,11.91
2019-05-20T00:03:07.999Z,11.91
2019-05-20T00:05:36.526Z,11.92
2019-05-20T00:08:04.911Z,11.96
2019-05-20T00:10:33.356Z,11.99
2019-05-20T00:13:01.781Z,12.09
2019-05-20T00:15:30.294Z,12.09
2019-05-20T00:17:58.719Z,12.12
2019-05-20T00:20:27.224Z,12.15
2019-05-20T00:22:55.631Z,12.18
2019-05-20T00:25:24.050Z,12.04
2019-05-20T00:27:52.469Z,11.99
2019-05-20T00:30:21.043Z,12.02
2019-05-20T00:32:49.462Z,12.11
2019-05-20T00:35:17.885Z,12.20
2019-05-20T00:37:46.325Z,12.28
2019-05-20T00:40:15.885Z,12.34
2019-05-20T00:42:44.319Z,12.41
2019-05-20T00:45:13.390Z,12.44
2019-05-20T00:47:41.815Z,12.48
2019-05-20T00:50:10.974Z,12.39
2019-05-20T00:52:39.495Z,12.54
2019-05-20T00:55:10.034Z,12.63
2019-05-20T00:57:38.437Z,12.67
2019-05-20T01:00:07.605Z,12.61
2019-05-20T01:02:36.038Z,12.65
2019-05-20T01:05:04.926Z,12.68
2019-05-20T01:07:33.421Z,12.63
2019-05-20T01:10:01.929Z,12.65
2019-05-20T01:12:30.324Z,12.57
2019-05-20T01:14:59.013Z,12.65
2019-05-20T01:17:27.411Z,12.66
2019-05-20T01:19:55.832Z,12.69
2019-05-20T01:22:24.339Z,12.70
2019-05-20T01:24:52.785Z,12.74
2019-05-20T01:27:21.186Z,12.68
2019-05-20T01:29:49.602Z,12.72
2019-05-20T01:32:18.049Z,12.72
2019-05-20T01:34:55.775Z,12.68
2019-05-20T01:37:24.244Z,12.66
2019-05-20T01:39:52.692Z,12.60
2019-05-20T01:42:21.136Z,12.68
2019-05-20T01:44:49.567Z,12.76
2019-05-20T01:47:17.995Z,12.73
2019-05-20T01:49:46.410Z,12.74
2019-05-20T01:52:14.849Z,12.73
2019-05-20T01:54:43.269Z,12.79
2019-05-20T01:57:11.705Z,12.83
2019-05-20T01:59:40.170Z,12.75
2019-05-20T02:02:08.573Z,12.78
2019-05-20T02:04:36.996Z,12.84
2019-05-20T02:07:05.434Z,12.85
2019-05-20T02:09:33.847Z,12.94
2019-05-20T02:12:02.282Z,12.96
2019-05-20T02:14:41.090Z,12.89
2019-05-20T02:17:09.712Z,12.93
2019-05-20T02:19:38.149Z,12.93
2019-05-20T02:22:06.657Z,12.88
2019-05-20T02:24:35.162Z,12.98
2019-05-20T02:27:03.605Z,13.00
2019-05-20T02:29:32.037Z,13.01
2019-05-20T02:32:00.462Z,12.98
2019-05-20T02:34:28.940Z,13.08
2019-05-20T02:36:57.463Z,12.98
2019-05-20T02:39:26.786Z,12.99
2019-05-20T02:41:55.414Z,12.95
2019-05-20T02:44:23.840Z,13.01
2019-05-20T02:46:52.276Z,13.10
2019-05-20T02:49:20.752Z,13.12
2019-05-20T02:51:49.273Z,13.02
2019-05-20T02:54:17.771Z,13.12
2019-05-20T02:56:46.782Z,13.06
2019-05-20T02:59:15.212Z,13.07
2019-05-20T03:01:43.794Z,13.13
2019-05-20T03:04:13.176Z,13.09
2019-05-20T03:06:41.670Z,12.98
2019-05-20T03:09:12.271Z,12.95
2019-05-20T03:11:40.335Z,13.07
2019-05-20T03:14:08.748Z,12.92
2019-05-20T03:16:37.170Z,12.98
2019-05-20T03:19:05.644Z,12.92
2019-05-20T03:21:34.057Z,12.92
2019-05-20T03:24:02.475Z,12.95
2019-05-20T03:26:30.986Z,12.97
2019-05-20T03:28:59.445Z,13.00
2019-05-20T03:31:27.877Z,12.95
2019-05-20T03:33:56.290Z,12.95
2019-05-20T03:36:24.710Z,12.85
2019-05-20T03:38:53.175Z,12.92
2019-05-20T03:41:21.605Z,12.86
2019-05-20T03:43:50.029Z,12.89
2019-05-20T03:46:18.488Z,12.93
2019-05-20T03:48:47.323Z,12.93
2019-05-20T03:51:15.741Z,12.92
2019-05-20T03:53:44.218Z,12.90
2019-05-20T03:56:12.665Z,12.86
2019-05-20T03:58:41.141Z,12.91
2019-05-20T04:01:09.583Z,12.88
2019-05-20T04:03:38.111Z,12.85
2019-05-20T04:06:06.545Z,12.80
2019-05-20T04:08:34.976Z,12.94
2019-05-20T04:11:03.438Z,12.84
2019-05-20T04:13:34.707Z,12.90
2019-05-20T04:16:02.046Z,12.89
2019-05-20T04:18:30.544Z,12.93
2019-05-20T04:20:58.961Z,12.97
2019-05-20T04:23:27.398Z,12.81
2019-05-20T04:25:55.840Z,12.83
2019-05-20T04:28:24.305Z,12.96
2019-05-20T04:30:52.834Z,12.98
2019-05-20T04:33:21.298Z,12.94
2019-05-20T04:35:50.147Z,13.05
2019-05-20T04:38:18.752Z,12.91
2019-05-20T04:57:19.035Z,13.62
2019-05-20T04:59:47.972Z,13.61
2019-05-20T05:02:16.402Z,13.63
2019-05-20T05:04:44.841Z,13.61
2019-05-20T05:07:13.283Z,13.45
2019-05-20T05:09:41.773Z,13.44
2019-05-20T05:12:10.242Z,13.44
2019-05-20T05:14:38.695Z,13.52
2019-05-20T05:17:07.317Z,13.51
2019-05-20T05:19:35.728Z,13.60
2019-05-20T05:22:04.262Z,13.56
2019-05-20T05:24:32.765Z,13.59
2019-05-20T05:27:01.344Z,13.55
2019-05-20T05:29:29.856Z,13.52
2019-05-20T05:31:58.280Z,13.59
2019-05-20T05:34:26.736Z,13.58
2019-05-20T05:36:55.244Z,13.59
2019-05-20T05:39:23.707Z,13.49
2019-05-20T05:41:52.140Z,13.65
2019-05-20T05:44:20.562Z,13.55
2019-05-20T05:46:49.113Z,13.67
2019-05-20T05:49:18.240Z,13.78
2019-05-20T05:51:46.683Z,13.80
2019-05-20T05:54:15.155Z,13.79
2019-05-20T05:56:43.570Z,13.85
2019-05-20T05:59:12.025Z,13.88
2019-05-20T06:01:40.595Z,13.85
2019-05-20T06:04:09.203Z,13.84
2019-05-20T06:06:37.648Z,13.84
2019-05-20T06:09:07.160Z,13.99
2019-05-20T06:11:35.574Z,13.78
2019-05-20T06:14:04.110Z,13.94
2019-05-20T06:16:36.650Z,13.85
2019-05-20T06:19:02.795Z,13.90
2019-05-20T06:21:31.242Z,13.80
2019-05-20T06:23:59.743Z,13.93
2019-05-20T06:26:28.160Z,13.90
2019-05-20T06:28:56.563Z,13.85
2019-05-20T06:31:25.083Z,13.97
2019-05-20T06:33:53.504Z,14.08
2019-05-20T06:36:27.000Z,14.06
2019-05-20T06:38:53.950Z,14.15
2019-05-20T06:41:22.451Z,14.18
2019-05-20T06:43:50.892Z,14.20
2019-05-20T06:46:19.331Z,14.04
2019-05-20T06:48:47.749Z,14.00
2019-05-20T06:51:16.160Z,13.99
2019-05-20T06:53:44.598Z,14.09
2019-05-20T06:56:13.051Z,14.05
2019-05-20T06:58:41.471Z,14.18
2019-05-20T07:01:09.912Z,14.18
2019-05-20T07:03:38.322Z,14.21
2019-05-20T07:06:06.761Z,14.21
2019-05-20T07:08:35.185Z,14.21
2019-05-20T07:11:03.609Z,14.20
2019-05-20T07:13:32.025Z,14.17
2019-05-20T07:16:00.435Z,14.15
2019-05-20T07:18:28.861Z,14.15
2019-05-20T07:20:57.293Z,14.30
2019-05-20T07:23:25.725Z,14.37
2019-05-20T07:25:54.151Z,14.31
2019-05-20T07:28:23.152Z,14.31
2019-05-20T07:30:51.543Z,14.35
2019-05-20T07:33:19.983Z,14.34
2019-05-20T07:35:48.412Z,14.43
2019-05-20T07:38:16.842Z,14.34
2019-05-20T07:40:45.269Z,14.39
2019-05-20T07:43:13.689Z,14.41
2019-05-20T07:45:42.454Z,14.30
2019-05-20T07:48:11.208Z,14.31
2019-05-20T07:50:41.288Z,14.29
2019-05-20T07:53:11.425Z,14.18
2019-05-20T07:55:42.893Z,14.30
2019-05-20T07:58:13.068Z,14.33
2019-05-20T08:00:41.770Z,14.38
2019-05-20T08:03:10.205Z,14.35
2019-05-20T08:05:38.673Z,14.41
2019-05-20T08:08:07.112Z,14.44
2019-05-20T08:10:35.634Z,14.52
2019-05-20T08:13:04.135Z,14.54
2019-05-20T08:15:32.539Z,14.59
2019-05-20T08:18:00.945Z,14.64
2019-05-20T08:20:29.419Z,14.61
2019-05-20T08:22:57.861Z,14.55
2019-05-20T08:25:26.282Z,14.60
2019-05-20T08:27:54.730Z,14.53
2019-05-20T08:30:35.159Z,14.46
2019-05-20T08:33:04.043Z,14.55
2019-05-20T08:35:32.563Z,14.64
2019-05-20T08:38:01.081Z,14.69
2019-05-20T08:40:29.481Z,14.80
2019-05-20T08:42:57.912Z,14.70
2019-05-20T08:45:26.328Z,14.48
2019-05-20T08:47:54.784Z,14.70
2019-05-20T08:50:23.208Z,14.51
2019-05-20T08:52:51.641Z,14.55
2019-05-20T08:55:20.047Z,14.52
2019-05-20T08:57:48.539Z,14.58
2019-05-20T09:00:23.702Z,14.81
2019-05-20T09:02:52.164Z,14.56
2019-05-20T09:05:20.621Z,14.59
2019-05-20T09:08:02.081Z,14.64
2019-05-20T09:10:19.570Z,14.65
2019-05-20T09:12:47.997Z,14.72
2019-05-20T09:15:17.974Z,14.77
2019-05-20T09:17:46.482Z,14.69
2019-05-20T09:20:15.326Z,14.72
2019-05-20T09:22:43.763Z,14.54
2019-05-20T09:25:12.790Z,14.65
2019-05-20T09:27:41.396Z,14.60
2019-05-20T09:30:10.461Z,14.60
2019-05-20T09:32:42.848Z,14.75
2019-05-20T09:35:10.104Z,14.77
2019-05-20T09:37:38.530Z,14.66
2019-05-20T09:40:07.586Z,14.79
2019-05-20T09:42:36.010Z,14.85
2019-05-20T09:45:05.612Z,14.76
2019-05-20T09:47:34.027Z,14.87
2019-05-20T09:52:48.583Z,14.84
2019-05-20T09:55:17.058Z,14.58
2019-05-20T09:57:45.489Z,14.67
2019-05-20T10:00:14.032Z,14.79
2019-05-20T10:02:42.491Z,14.62
2019-05-20T10:05:11.017Z,14.81
2019-05-20T10:07:39.447Z,14.87
2019-05-20T10:10:07.991Z,14.66
2019-05-20T10:12:45.865Z,14.87
2019-05-20T10:15:07.743Z,14.76
2019-05-20T10:17:36.260Z,14.87
2019-05-20T10:20:06.664Z,14.73
2019-05-20T10:22:35.270Z,14.70
2019-05-20T10:25:05.276Z,14.67
2019-05-20T10:27:33.685Z,14.78
2019-05-20T10:30:02.194Z,14.68
2019-05-20T10:32:30.696Z,14.76
2019-05-20T10:34:59.151Z,14.74
2019-05-20T10:37:27.575Z,14.91
2019-05-20T10:39:55.987Z,14.89
2019-05-20T10:42:24.458Z,14.85
2019-05-20T10:44:52.946Z,15.03
2019-05-20T10:47:21.337Z,15.01
2019-05-20T10:49:50.039Z,14.97
2019-05-20T10:52:18.553Z,14.98
2019-05-20T10:54:46.949Z,15.13
2019-05-20T10:57:15.384Z,15.18
2019-05-20T10:59:43.837Z,15.07
2019-05-20T11:02:12.273Z,15.09
2019-05-20T11:04:40.681Z,14.94
2019-05-20T11:07:09.108Z,14.74
2019-05-20T11:09:37.504Z,14.90
2019-05-20T11:12:05.926Z,14.84
2019-05-20T11:14:35.005Z,14.81
2019-05-20T11:17:03.439Z,14.88
2019-05-20T11:19:31.905Z,14.95
2019-05-20T11:22:00.357Z,14.87
2019-05-20T11:24:28.762Z,14.94
2019-05-20T11:26:57.240Z,15.02
2019-05-20T11:29:25.640Z,14.97
2019-05-20T11:31:54.073Z,15.18
2019-05-20T11:34:22.482Z,15.16
2019-05-20T11:36:50.905Z,15.21
2019-05-20T11:39:32.488Z,15.18
2019-05-20T11:41:54.284Z,15.13
2019-05-20T11:44:19.618Z,15.13
2019-05-20T11:46:48.045Z,15.23
2019-05-20T11:49:16.501Z,15.13
2019-05-20T11:51:44.929Z,15.41
2019-05-20T11:54:13.348Z,15.56
2019-05-20T11:56:41.795Z,15.61
2019-05-20T11:59:10.207Z,15.68
2019-05-20T12:01:38.621Z,15.52
2019-05-20T12:04:07.097Z,15.60
2019-05-20T12:06:35.499Z,15.48
2019-05-20T12:09:05.689Z,15.65
2019-05-20T12:11:34.127Z,15.65
2019-05-20T12:14:02.563Z,15.61
2019-05-20T12:16:30.952Z,15.52
2019-05-20T12:18:59.450Z,15.76
2019-05-20T12:21:27.884Z,15.88
2019-05-20T12:23:56.298Z,15.62
2019-05-20T12:26:24.833Z,15.64
2019-05-20T12:28:53.296Z,15.53
2019-05-20T12:31:22.736Z,15.46
2019-05-20T12:33:51.176Z,15.47
2019-05-20T12:36:19.622Z,15.69
2019-05-20T12:38:48.068Z,15.42
2019-05-20T12:41:16.481Z,15.42
2019-05-20T12:43:45.336Z,15.46
2019-05-20T12:46:13.860Z,15.59
2019-05-20T12:48:42.273Z,15.74
2019-05-20T12:51:14.354Z,15.75
2019-05-20T12:53:41.018Z,15.43
2019-05-20T12:56:09.471Z,15.52
2019-05-20T12:58:37.920Z,15.36
2019-05-20T13:01:06.331Z,15.66
2019-05-20T13:03:34.757Z,15.37
2019-05-20T13:06:03.154Z,15.53
2019-05-20T13:08:31.611Z,15.58
2019-05-20T13:11:00.029Z,15.47
2019-05-20T13:13:28.470Z,15.53
2019-05-20T13:15:56.904Z,15.55
2019-05-20T13:18:25.426Z,15.70
2019-05-20T13:20:53.832Z,15.70
2019-05-20T13:23:22.274Z,15.79
2019-05-20T13:25:50.666Z,15.90
2019-05-20T13:28:19.101Z,15.88
2019-05-20T13:30:47.538Z,15.78
2019-05-20T13:33:15.942Z,15.81
2019-05-20T13:35:44.536Z,15.93
2019-05-20T13:38:12.984Z,15.70
2019-05-20T13:40:46.335Z,15.66
2019-05-20T13:43:11.655Z,15.73
2019-05-20T13:45:40.083Z,15.66
2019-05-20T13:48:08.622Z,15.61
2019-05-20T13:50:37.065Z,15.78
2019-05-20T13:53:05.497Z,15.65
2019-05-20T13:55:33.911Z,15.65
2019-05-20T13:58:02.423Z,15.82
2019-05-20T14:00:30.843Z,15.92
2019-05-20T14:02:59.282Z,15.94
2019-05-20T14:05:27.783Z,15.81
2019-05-20T14:07:56.202Z,15.87
2019-05-20T14:10:24.656Z,15.94
2019-05-20T14:12:53.086Z,15.97
2019-05-20T14:15:21.517Z,16.17
2019-05-20T14:17:49.967Z,16.05
2019-05-20T14:20:18.507Z,15.98
2019-05-20T14:22:46.990Z,15.97
2019-05-20T14:25:15.615Z,15.81
2019-05-20T14:27:44.017Z,15.82
2019-05-20T14:30:12.589Z,15.81
2019-05-20T14:32:41.028Z,15.95
2019-05-20T14:35:09.669Z,15.77
2019-05-20T14:37:38.092Z,15.64
2019-05-20T14:40:07.370Z,15.76
2019-05-20T14:42:35.862Z,15.83
2019-05-20T14:45:05.266Z,15.69
2019-05-20T14:47:33.675Z,15.71
2019-05-20T14:50:02.101Z,15.58
2019-05-20T14:52:30.537Z,15.74
2019-05-20T14:54:58.938Z,15.80
2019-05-20T14:57:27.353Z,15.81
2019-05-20T14:59:55.779Z,15.93
2019-05-20T15:02:24.433Z,15.90
2019-05-20T15:04:52.892Z,15.82
2019-05-20T15:07:30.179Z,15.79
2019-05-20T15:09:51.526Z,15.89
2019-05-20T15:12:19.943Z,15.82
2019-05-20T15:14:48.663Z,15.94
2019-05-20T15:17:17.051Z,15.78
2019-05-20T15:19:45.494Z,15.53
2019-05-20T15:22:13.964Z,15.58
2019-05-20T15:24:42.345Z,15.45
2019-05-20T15:27:10.765Z,15.45
2019-05-20T15:29:39.228Z,15.53
2019-05-20T15:32:07.646Z,15.59
2019-05-20T15:34:36.074Z,15.54
2019-05-20T15:37:04.543Z,15.46
2019-05-20T15:39:33.024Z,15.36
2019-05-20T15:42:01.485Z,15.44
2019-05-20T15:44:29.897Z,15.65
2019-05-20T15:46:58.303Z,15.62
2019-05-20T15:49:26.997Z,15.53
2019-05-20T15:51:55.432Z,15.33
2019-05-20T15:54:23.874Z,15.52
2019-05-20T15:56:52.309Z,15.54
2019-05-20T15:59:20.731Z,15.70
2019-05-20T16:01:49.190Z,15.66
2019-05-20T16:04:18.626Z,15.55
2019-05-20T16:06:47.130Z,15.64
2019-05-20T16:09:17.235Z,15.71
2019-05-20T16:11:45.999Z,15.62
2019-05-20T16:14:14.672Z,15.76
2019-05-20T16:16:43.090Z,15.70
2019-05-20T16:19:11.513Z,15.68
2019-05-20T16:21:39.967Z,15.66
2019-05-20T16:24:08.547Z,15.47
2019-05-20T16:26:37.168Z,15.41
2019-05-20T16:29:05.773Z,15.48
2019-05-20T16:31:34.256Z,15.47
2019-05-20T16:34:02.705Z,15.49
2019-05-20T16:36:31.188Z,15.33
2019-05-20T16:38:59.754Z,15.31
2019-05-20T16:41:28.286Z,15.30
2019-05-20T16:43:56.787Z,15.45
2019-05-20T16:46:25.243Z,15.42
2019-05-20T16:48:53.662Z,15.40
2019-05-20T16:51:22.649Z,15.45
2019-05-20T16:53:51.108Z,15.52
2019-05-20T16:56:19.517Z,15.49
2019-05-20T16:58:47.967Z,15.48
2019-05-20T17:01:16.398Z,15.47
2019-05-20T17:03:45.185Z,15.49
2019-05-20T17:06:13.642Z,15.34
2019-05-20T17:08:42.062Z,15.33
2019-05-20T17:11:10.517Z,15.34
2019-05-20T17:13:38.922Z,15.36
2019-05-20T17:16:07.355Z,15.31
2019-05-20T17:18:35.771Z,15.41
2019-05-20T17:21:05.779Z,15.24
2019-05-20T17:23:34.143Z,15.34
2019-05-20T17:26:02.630Z,15.28
2019-05-20T17:28:31.076Z,15.26
2019-05-20T17:30:59.484Z,15.16
2019-05-20T17:33:27.919Z,15.18
2019-05-20T17:35:56.384Z,15.03
2019-05-20T17:38:24.877Z,15.08
2019-05-20T17:40:53.343Z,15.20
2019-05-20T17:43:21.760Z,15.16
2019-05-20T17:45:50.197Z,15.19
2019-05-20T17:48:18.624Z,15.18
2019-05-20T17:50:47.036Z,15.14
2019-05-20T17:53:17.848Z,15.29
2019-05-20T17:55:45.579Z,15.40
2019-05-20T17:58:14.033Z,15.14
2019-05-20T18:00:42.509Z,15.24
2019-05-20T18:03:10.904Z,15.25
2019-05-20T18:05:39.311Z,15.18
2019-05-20T18:08:07.757Z,15.27
2019-05-20T18:10:36.157Z,15.27
2019-05-20T18:13:04.751Z,15.06
2019-05-20T18:15:33.215Z,15.14
2019-05-20T18:18:01.787Z,15.06
2019-05-20T18:20:30.204Z,15.17
2019-05-20T18:22:58.680Z,15.02
2019-05-20T18:25:27.110Z,15.01
2019-05-20T18:27:55.543Z,14.97
2019-05-20T18:30:24.316Z,14.94
2019-05-20T18:32:52.767Z,14.79
2019-05-20T18:35:21.245Z,14.85
2019-05-20T18:37:49.650Z,14.99
2019-05-20T18:40:18.427Z,14.80
2019-05-20T18:42:46.886Z,14.93
2019-05-20T18:45:15.550Z,15.05
2019-05-20T18:47:44.038Z,15.13
2019-05-20T18:50:13.011Z,15.09
2019-05-20T18:52:41.446Z,14.97
2019-05-20T18:55:10.000Z,14.95
2019-05-20T18:57:38.427Z,15.02
2019-05-20T19:00:09.454Z,14.98
2019-05-20T19:02:37.869Z,14.88
2019-05-20T19:05:07.884Z,14.99
2019-05-20T19:07:36.296Z,14.91
2019-05-20T19:10:06.161Z,14.87
2019-05-20T19:12:34.654Z,14.82
2019-05-20T19:15:03.059Z,14.72
2019-05-20T19:17:31.754Z,14.60
2019-05-20T19:20:00.227Z,14.73
2019-05-20T19:22:28.711Z,14.61
2019-05-20T19:24:57.164Z,14.69
2019-05-20T19:27:25.556Z,14.61
2019-05-20T19:29:53.987Z,14.69
2019-05-20T19:32:22.465Z,14.76
2019-05-20T19:34:50.891Z,14.71
2019-05-20T19:37:19.358Z,14.77
2019-05-20T19:39:47.773Z,14.77
2019-05-20T19:42:16.207Z,14.82
2019-05-20T19:44:44.623Z,14.65
2019-05-20T19:47:13.200Z,14.80
2019-05-20T19:49:42.546Z,14.82
2019-05-20T19:52:11.241Z,14.72
2019-05-20T19:54:39.806Z,14.71
2019-05-20T19:57:08.305Z,14.68
2019-05-20T19:59:36.712Z,14.75
2019-05-20T20:02:16.404Z,14.74
2019-05-20T20:04:35.430Z,14.70
2019-05-20T20:07:04.100Z,14.66
2019-05-20T20:09:32.571Z,14.57
2019-05-20T20:12:00.987Z,14.49
2019-05-20T20:14:29.397Z,14.56
2019-05-20T20:16:58.030Z,14.58
2019-05-20T20:19:26.732Z,14.58
2019-05-20T20:21:55.204Z,14.54
2019-05-20T20:24:23.773Z,14.50
2019-05-20T20:26:52.322Z,14.43
2019-05-20T20:29:20.730Z,14.43
2019-05-20T20:31:49.149Z,14.54
2019-05-20T20:34:17.646Z,14.40
2019-05-20T20:36:46.090Z,14.43
2019-05-20T20:39:14.662Z,14.42
2019-05-20T20:41:43.171Z,14.33
2019-05-20T20:44:11.701Z,14.40
2019-05-20T20:46:40.791Z,14.39
2019-05-20T20:49:09.165Z,14.34
2019-05-20T20:51:37.673Z,14.27
2019-05-20T20:54:06.223Z,14.26
2019-05-20T20:56:34.713Z,14.37
2019-05-20T20:59:03.202Z,14.41
2019-05-20T21:01:31.631Z,14.40
2019-05-20T21:04:00.242Z,14.29
2019-05-20T21:06:28.668Z,14.38
2019-05-20T21:08:57.090Z,14.16
2019-05-20T21:11:25.584Z,14.19
2019-05-20T21:13:54.059Z,14.27
2019-05-20T21:16:22.488Z,14.31
2019-05-20T21:18:50.908Z,14.21
2019-05-20T21:21:19.399Z,14.22
2019-05-20T21:23:47.843Z,14.22
2019-05-20T21:26:16.252Z,14.29
2019-05-20T21:28:44.706Z,14.11
2019-05-20T21:31:13.157Z,14.19
2019-05-20T21:33:41.568Z,14.03
2019-05-20T21:36:09.991Z,14.00
2019-05-20T21:38:38.407Z,13.94
2019-05-20T21:41:07.090Z,14.16
2019-05-20T21:43:35.505Z,14.07
2019-05-20T21:46:03.905Z,14.02
2019-05-20T21:48:32.441Z,14.15
2019-05-20T21:51:00.843Z,14.08
2019-05-20T21:53:29.272Z,14.01
2019-05-20T21:55:57.702Z,14.02
2019-05-20T21:58:26.108Z,13.96
2019-05-20T22:00:56.414Z,14.01
2019-05-20T22:03:25.433Z,14.02
2019-05-20T22:05:54.097Z,13.87
2019-05-20T22:08:22.585Z,13.87
2019-05-20T22:10:51.077Z,13.63
2019-05-20T22:13:19.482Z,13.73
2019-05-20T22:15:47.915Z,13.71
2019-05-20T22:18:16.356Z,13.65
2019-05-20T22:20:44.794Z,13.70
2019-05-20T22:23:23.597Z,13.61
2019-05-20T22:25:52.679Z,13.65
2019-05-20T22:28:21.351Z,13.63
2019-05-20T22:30:49.765Z,13.65
2019-05-20T22:33:18.217Z,13.54
2019-05-20T22:35:46.652Z,13.70
2019-05-20T22:38:15.084Z,13.67
2019-05-20T22:40:43.885Z,13.63
2019-05-20T22:43:12.349Z,13.63
2019-05-20T22:45:40.777Z,13.70
2019-05-20T22:48:09.190Z,13.67
2019-05-20T22:50:37.651Z,13.69
2019-05-20T22:53:06.066Z,13.64
2019-05-20T22:55:34.504Z,13.60
2019-05-20T22:58:02.942Z,13.59
2019-05-20T23:00:31.341Z,13.60
2019-05-20T23:05:35.021Z,13.62
2019-05-20T23:08:03.444Z,13.53
2019-05-20T23:10:31.918Z,13.60
2019-05-20T23:13:00.330Z,13.61
2019-05-20T23:15:28.759Z,13.54
2019-05-20T23:17:57.203Z,13.65
2019-05-20T23:20:25.632Z,13.66
2019-05-20T23:22:54.054Z,13.64
2019-05-20T23:25:22.472Z,13.61
2019-05-20T23:27:50.982Z,13.71
2019-05-20T23:30:19.543Z,13.62
2019-05-20T23:32:47.988Z,13.65
2019-05-20T23:35:16.413Z,13.60
2019-05-20T23:37:44.870Z,13.54
2019-05-20T23:40:13.420Z,13.67
2019-05-20T23:42:41.864Z,13.68
2019-05-20T23:45:11.129Z,13.67
2019-05-20T23:47:39.584Z,13.61
2019-05-20T23:50:08.154Z,13.58
2019-05-20T23:52:36.573Z,13.67
2019-05-20T23:55:07.661Z,13.61
2019-05-20T23:57:36.111Z,13.70
